createdAt,value
2018-08-28T00:00:38.206Z,0
2018-08-28T00:01:37.639Z,0
2018-08-28T00:02:37.902Z,0
2018-08-28T00:03:38.139Z,0
2018-08-28T00:04:37.870Z,0
2018-08-28T00:05:38.104Z,0
2018-08-28T00:06:38.086Z,0
2018-08-28T00:07:37.565Z,0
2018-08-28T00:08:37.825Z,0
2018-08-28T00:09:38.120Z,0
2018-08-28T00:10:37.887Z,0
2018-08-28T00:11:38.048Z,0
2018-08-28T00:12:38.082Z,0
2018-08-28T00:13:38.002Z,0
2018-08-28T00:14:38.016Z,0
2018-08-28T00:15:37.719Z,0
2018-08-28T00:16:37.706Z,0
2018-08-28T00:17:37.959Z,0
2018-08-28T00:18:37.149Z,0
2018-08-28T00:19:37.660Z,0
2018-08-28T00:20:37.700Z,0
2018-08-28T00:21:37.392Z,0
2018-08-28T00:22:37.642Z,0
2018-08-28T00:23:37.680Z,0
2018-08-28T00:24:38.164Z,0
2018-08-28T00:25:37.605Z,0
2018-08-28T00:26:37.602Z,0
2018-08-28T00:27:37.581Z,0
2018-08-28T00:28:37.839Z,0
2018-08-28T00:29:37.892Z,0
2018-08-28T00:30:37.555Z,0
2018-08-28T00:31:37.843Z,0
2018-08-28T00:32:37.535Z,0
2018-08-28T00:33:37.253Z,0
2018-08-28T00:34:38.029Z,0
2018-08-28T00:35:38.019Z,0
2018-08-28T00:36:38.013Z,0
2018-08-28T00:37:37.425Z,0
2018-08-28T00:38:37.447Z,0
2018-08-28T00:39:37.184Z,0
2018-08-28T00:40:37.439Z,0
2018-08-28T00:41:37.682Z,0
2018-08-28T00:42:37.671Z,0
2018-08-28T00:43:37.388Z,0
2018-08-28T00:44:37.919Z,0
2018-08-28T00:45:37.374Z,0
2018-08-28T00:46:37.366Z,0
2018-08-28T00:47:37.336Z,0
2018-08-28T00:48:37.590Z,0
2018-08-28T00:49:37.330Z,0
2018-08-28T00:50:37.555Z,0
2018-08-28T00:51:37.296Z,0
2018-08-28T00:52:37.389Z,0
2018-08-28T00:53:37.275Z,0
2018-08-28T00:54:37.528Z,0
2018-08-28T00:55:37.247Z,0
2018-08-28T00:56:37.253Z,0
2018-08-28T00:57:37.229Z,0
2018-08-28T00:58:37.201Z,0
2018-08-28T00:59:37.212Z,0
2018-08-28T01:00:36.922Z,0
2018-08-28T01:01:37.837Z,0
2018-08-28T01:02:37.686Z,0
2018-08-28T01:03:37.152Z,0
2018-08-28T01:04:36.860Z,0
2018-08-28T01:05:37.380Z,0
2018-08-28T01:06:37.384Z,0
2018-08-28T01:07:37.361Z,0
2018-08-28T01:08:36.821Z,0
2018-08-28T01:09:37.075Z,0
2018-08-28T01:10:37.373Z,0
2018-08-28T01:11:36.773Z,0
2018-08-28T01:12:37.050Z,0
2018-08-28T01:13:37.297Z,0
2018-08-28T01:14:37.528Z,0
2018-08-28T01:15:37.006Z,0
2018-08-28T01:16:37.244Z,0
2018-08-28T01:17:37.508Z,0
2018-08-28T01:18:37.505Z,0
2018-08-28T01:19:37.208Z,0
2018-08-28T01:20:37.204Z,0
2018-08-28T01:21:37.182Z,0
2018-08-28T01:22:36.909Z,0
2018-08-28T01:23:37.168Z,0
2018-08-28T01:24:37.428Z,0
2018-08-28T01:25:37.470Z,0
2018-08-28T01:26:37.153Z,0
2018-08-28T01:27:37.374Z,0
2018-08-28T01:28:37.421Z,0
2018-08-28T01:29:37.433Z,0
2018-08-28T01:30:37.347Z,0
2018-08-28T01:31:37.065Z,0
2018-08-28T01:32:37.305Z,0
2018-08-28T01:33:36.787Z,0
2018-08-28T01:34:37.039Z,0
2018-08-28T01:35:36.499Z,0
2018-08-28T01:36:36.490Z,0
2018-08-28T01:37:37.009Z,0
2018-08-28T01:38:36.731Z,0
2018-08-28T01:39:36.979Z,0
2018-08-28T01:40:37.232Z,0
2018-08-28T01:41:36.669Z,0
2018-08-28T01:42:36.685Z,0
2018-08-28T01:43:36.926Z,0
2018-08-28T01:44:36.174Z,0
2018-08-28T01:45:36.902Z,0
2018-08-28T01:46:36.896Z,0
2018-08-28T01:47:36.864Z,0
2018-08-28T01:48:37.206Z,0
2018-08-28T01:49:36.852Z,0
2018-08-28T01:50:36.566Z,0
2018-08-28T01:51:36.825Z,0
2018-08-28T01:52:36.545Z,0
2018-08-28T01:53:36.549Z,0
2018-08-28T01:54:36.581Z,0
2018-08-28T01:55:36.251Z,0
2018-08-28T01:56:36.765Z,0
2018-08-28T01:57:37.023Z,0
2018-08-28T01:58:36.752Z,0
2018-08-28T01:59:37.002Z,0
2018-08-28T02:00:36.726Z,0
2018-08-28T02:01:35.897Z,0
2018-08-28T02:02:36.423Z,0
2018-08-28T02:03:36.950Z,0
2018-08-28T02:04:36.404Z,0
2018-08-28T02:05:36.402Z,0
2018-08-28T02:06:36.923Z,0
2018-08-28T02:07:36.368Z,0
2018-08-28T02:08:36.619Z,0
2018-08-28T02:09:36.892Z,0
2018-08-28T02:10:36.613Z,0
2018-08-28T02:11:36.114Z,0
2018-08-28T02:12:36.842Z,0
2018-08-28T02:13:36.597Z,0
2018-08-28T02:14:36.289Z,0
2018-08-28T02:15:36.318Z,0
2018-08-28T02:16:36.793Z,0
2018-08-28T02:17:36.286Z,0
2018-08-28T02:18:36.493Z,0
2018-08-28T02:19:36.474Z,0
2018-08-28T02:20:36.476Z,0
2018-08-28T02:21:36.479Z,0
2018-08-28T02:22:35.926Z,0
2018-08-28T02:23:36.174Z,0
2018-08-28T02:24:36.178Z,0
2018-08-28T02:25:36.681Z,0
2018-08-28T02:26:36.400Z,0
2018-08-28T02:27:36.380Z,0
2018-08-28T02:28:36.647Z,0
2018-08-28T02:29:36.410Z,0
2018-08-28T02:30:35.820Z,0
2018-08-28T02:31:36.329Z,0
2018-08-28T02:32:36.330Z,0
2018-08-28T02:33:35.967Z,0
2018-08-28T02:34:36.039Z,0
2018-08-28T02:35:36.017Z,0
2018-08-28T02:36:36.284Z,0
2018-08-28T02:37:36.010Z,0
2018-08-28T02:38:36.001Z,0
2018-08-28T02:39:36.513Z,0
2018-08-28T02:40:36.242Z,0
2018-08-28T02:41:35.686Z,0
2018-08-28T02:42:35.963Z,0
2018-08-28T02:43:35.940Z,0
2018-08-28T02:44:36.456Z,0
2018-08-28T02:45:35.921Z,0
2018-08-28T02:46:35.878Z,0
2018-08-28T02:47:36.153Z,0
2018-08-28T02:48:36.138Z,0
2018-08-28T02:49:36.121Z,0
2018-08-28T02:50:35.845Z,0
2018-08-28T02:51:35.841Z,0
2018-08-28T02:52:35.804Z,0
2018-08-28T02:53:35.795Z,0
2018-08-28T02:54:36.317Z,0
2018-08-28T02:55:36.059Z,0
2018-08-28T02:56:35.517Z,0
2018-08-28T02:57:36.296Z,0
2018-08-28T02:58:35.738Z,0
2018-08-28T02:59:35.730Z,0
2018-08-28T03:00:35.197Z,0
2018-08-28T03:01:36.445Z,0
2018-08-28T03:02:35.994Z,0
2018-08-28T03:03:35.952Z,0
2018-08-28T03:04:36.253Z,0
2018-08-28T03:05:35.938Z,0
2018-08-28T03:06:35.918Z,0
2018-08-28T03:07:36.203Z,0
2018-08-28T03:08:35.376Z,0
2018-08-28T03:09:36.136Z,0
2018-08-28T03:10:35.612Z,0
2018-08-28T03:11:35.788Z,0
2018-08-28T03:12:35.842Z,0
2018-08-28T03:13:35.557Z,0
2018-08-28T03:14:36.079Z,0
2018-08-28T03:15:35.688Z,0
2018-08-28T03:16:36.058Z,0
2018-08-28T03:17:36.040Z,0
2018-08-28T03:18:35.765Z,0
2018-08-28T03:19:35.228Z,0
2018-08-28T03:20:35.732Z,0
2018-08-28T03:21:35.998Z,0
2018-08-28T03:22:34.926Z,0
2018-08-28T03:23:35.990Z,0
2018-08-28T03:24:35.728Z,0
2018-08-28T03:25:35.422Z,0
2018-08-28T03:26:35.937Z,0
2018-08-28T03:27:35.672Z,0
2018-08-28T03:28:35.663Z,0
2018-08-28T03:29:35.390Z,0
2018-08-28T03:30:35.960Z,0
2018-08-28T03:31:35.903Z,0
2018-08-28T03:32:35.634Z,0
2018-08-28T03:33:35.600Z,0
2018-08-28T03:34:35.834Z,0
2018-08-28T03:35:35.846Z,0
2018-08-28T03:36:35.288Z,0
2018-08-28T03:37:35.015Z,0
2018-08-28T03:38:35.264Z,0
2018-08-28T03:39:35.518Z,0
2018-08-28T03:40:35.239Z,0
2018-08-28T03:41:35.748Z,0
2018-08-28T03:42:35.481Z,0
2018-08-28T03:43:34.681Z,0
2018-08-28T03:44:35.008Z,0
2018-08-28T03:45:35.447Z,0
2018-08-28T03:46:35.159Z,0
2018-08-28T03:47:35.135Z,0
2018-08-28T03:48:35.131Z,0
2018-08-28T03:49:35.394Z,0
2018-08-28T03:50:35.131Z,0
2018-08-28T03:51:35.374Z,0
2018-08-28T03:52:34.828Z,0
2018-08-28T03:53:35.072Z,0
2018-08-28T03:54:35.325Z,0
2018-08-28T03:55:35.862Z,0
2018-08-28T03:56:35.585Z,0
2018-08-28T03:57:35.568Z,0
2018-08-28T03:58:35.037Z,0
2018-08-28T03:59:35.541Z,0
2018-08-28T04:00:35.244Z,0
2018-08-28T04:01:34.978Z,0
2018-08-28T04:02:34.716Z,0
2018-08-28T04:03:35.036Z,0
2018-08-28T04:04:34.665Z,0
2018-08-28T04:05:34.935Z,0
2018-08-28T04:06:34.919Z,0
2018-08-28T04:07:35.439Z,0
2018-08-28T04:08:34.896Z,0
2018-08-28T04:09:35.137Z,0
2018-08-28T04:10:34.872Z,0
2018-08-28T04:11:34.609Z,0
2018-08-28T04:12:35.113Z,0
2018-08-28T04:13:35.098Z,0
2018-08-28T04:14:34.561Z,0
2018-08-28T04:15:35.349Z,0
2018-08-28T04:16:34.797Z,0
2018-08-28T04:17:34.508Z,0
2018-08-28T04:18:34.751Z,0
2018-08-28T04:19:35.019Z,0
2018-08-28T04:20:34.745Z,0
2018-08-28T04:21:34.722Z,0
2018-08-28T04:22:34.988Z,0
2018-08-28T04:23:34.954Z,0
2018-08-28T04:24:35.230Z,0
2018-08-28T04:25:34.936Z,0
2018-08-28T04:26:34.937Z,0
2018-08-28T04:27:34.917Z,0
2018-08-28T04:28:34.639Z,0
2018-08-28T04:29:34.623Z,0
2018-08-28T04:30:35.758Z,0
2018-08-28T04:31:34.874Z,0
2018-08-28T04:32:34.595Z,0
2018-08-28T04:33:34.849Z,0
2018-08-28T04:34:34.832Z,0
2018-08-28T04:35:34.828Z,0
2018-08-28T04:36:35.061Z,0
2018-08-28T04:37:34.262Z,0
2018-08-28T04:38:34.792Z,0
2018-08-28T04:39:35.046Z,0
2018-08-28T04:40:34.224Z,0
2018-08-28T04:41:34.738Z,0
2018-08-28T04:42:34.459Z,0
2018-08-28T04:43:34.987Z,0
2018-08-28T04:44:34.440Z,0
2018-08-28T04:45:34.434Z,5
2018-08-28T04:46:34.468Z,5
2018-08-28T04:47:34.679Z,5
2018-08-28T04:48:35.230Z,5
2018-08-28T04:49:34.667Z,5
2018-08-28T04:50:34.124Z,5
2018-08-28T04:51:33.836Z,5
2018-08-28T04:52:34.096Z,5
2018-08-28T04:53:34.100Z,5
2018-08-28T04:54:34.608Z,5
2018-08-28T04:55:34.592Z,5
2018-08-28T04:56:34.038Z,5
2018-08-28T04:57:34.287Z,5
2018-08-28T04:58:34.533Z,5
2018-08-28T04:59:33.997Z,5
2018-08-28T05:00:34.267Z,10
2018-08-28T05:01:34.510Z,10
2018-08-28T05:02:34.438Z,10
2018-08-28T05:03:33.957Z,10
2018-08-28T05:04:34.204Z,10
2018-08-28T05:05:34.191Z,10
2018-08-28T05:06:34.460Z,10
2018-08-28T05:07:34.696Z,10
2018-08-28T05:08:34.431Z,10
2018-08-28T05:09:34.410Z,10
2018-08-28T05:10:34.390Z,10
2018-08-28T05:11:34.456Z,10
2018-08-28T05:12:34.388Z,15
2018-08-28T05:13:34.086Z,15
2018-08-28T05:14:34.364Z,15
2018-08-28T05:15:34.067Z,15
2018-08-28T05:16:33.784Z,15
2018-08-28T05:17:33.518Z,15
2018-08-28T05:18:34.295Z,15
2018-08-28T05:19:34.598Z,20
2018-08-28T05:20:34.005Z,20
2018-08-28T05:21:34.573Z,20
2018-08-28T05:22:34.512Z,20
2018-08-28T05:23:33.959Z,20
2018-08-28T05:24:33.957Z,20
2018-08-28T05:25:33.947Z,20
2018-08-28T05:26:34.465Z,25
2018-08-28T05:27:34.449Z,25
2018-08-28T05:28:33.920Z,25
2018-08-28T05:29:34.019Z,25
2018-08-28T05:30:34.983Z,25
2018-08-28T05:31:33.964Z,25
2018-08-28T05:32:34.399Z,25
2018-08-28T05:33:34.373Z,25
2018-08-28T05:34:33.838Z,25
2018-08-28T05:35:34.356Z,30
2018-08-28T05:36:33.808Z,30
2018-08-28T05:37:33.790Z,30
2018-08-28T05:38:33.536Z,30
2018-08-28T05:39:33.505Z,30
2018-08-28T05:40:34.035Z,30
2018-08-28T05:41:34.015Z,30
2018-08-28T05:42:33.736Z,35
2018-08-28T05:43:33.983Z,35
2018-08-28T05:44:34.232Z,35
2018-08-28T05:45:34.240Z,35
2018-08-28T05:46:33.689Z,35
2018-08-28T05:47:33.676Z,35
2018-08-28T05:48:33.684Z,40
2018-08-28T05:49:34.550Z,40
2018-08-28T05:50:33.904Z,40
2018-08-28T05:51:34.141Z,40
2018-08-28T05:52:33.612Z,40
2018-08-28T05:53:33.862Z,40
2018-08-28T05:54:33.584Z,40
2018-08-28T05:55:33.841Z,45
2018-08-28T05:56:34.092Z,45
2018-08-28T05:57:33.890Z,45
2018-08-28T05:58:34.078Z,45
2018-08-28T05:59:33.841Z,45
2018-08-28T06:00:33.258Z,45
2018-08-28T06:01:33.499Z,45
2018-08-28T06:02:33.756Z,45
2018-08-28T06:03:34.292Z,45
2018-08-28T06:04:32.932Z,45
2018-08-28T06:05:33.993Z,50
2018-08-28T06:06:33.720Z,50
2018-08-28T06:07:33.494Z,50
2018-08-28T06:08:33.448Z,50
2018-08-28T06:09:33.714Z,50
2018-08-28T06:10:33.675Z,55
2018-08-28T06:11:33.437Z,55
2018-08-28T06:12:33.914Z,55
2018-08-28T06:13:33.918Z,55
2018-08-28T06:14:33.441Z,55
2018-08-28T06:15:33.606Z,55
2018-08-28T06:16:33.649Z,60
2018-08-28T06:17:33.344Z,60
2018-08-28T06:18:33.574Z,60
2018-08-28T06:19:33.572Z,60
2018-08-28T06:20:33.295Z,65
2018-08-28T06:21:33.540Z,65
2018-08-28T06:22:33.255Z,65
2018-08-28T06:23:33.499Z,70
2018-08-28T06:24:32.966Z,70
2018-08-28T06:25:33.501Z,70
2018-08-28T06:26:34.005Z,70
2018-08-28T06:27:33.203Z,70
2018-08-28T06:28:33.178Z,70
2018-08-28T06:29:33.212Z,70
2018-08-28T06:30:33.419Z,70
2018-08-28T06:31:33.420Z,70
2018-08-28T06:32:33.137Z,75
2018-08-28T06:33:32.858Z,75
2018-08-28T06:34:33.410Z,75
2018-08-28T06:35:33.109Z,80
2018-08-28T06:36:33.117Z,80
2018-08-28T06:37:33.371Z,80
2018-08-28T06:38:33.074Z,85
2018-08-28T06:39:33.607Z,85
2018-08-28T06:40:33.037Z,85
2018-08-28T06:41:33.304Z,85
2018-08-28T06:42:33.328Z,85
2018-08-28T06:43:33.178Z,85
2018-08-28T06:44:33.267Z,85
2018-08-28T06:45:33.525Z,85
2018-08-28T06:46:33.259Z,85
2018-08-28T06:47:33.233Z,85
2018-08-28T06:48:32.963Z,85
2018-08-28T06:49:33.088Z,85
2018-08-28T06:50:32.924Z,85
2018-08-28T06:51:32.660Z,85
2018-08-28T06:52:32.647Z,85
2018-08-28T06:53:33.144Z,90
2018-08-28T06:54:33.153Z,90
2018-08-28T06:55:32.873Z,90
2018-08-28T06:56:33.145Z,90
2018-08-28T06:57:32.855Z,90
2018-08-28T06:58:33.116Z,90
2018-08-28T06:59:33.082Z,90
2018-08-28T07:00:32.829Z,90
2018-08-28T07:01:33.330Z,90
2018-08-28T07:02:33.672Z,95
2018-08-28T07:03:32.236Z,95
2018-08-28T07:04:33.291Z,100
2018-08-28T07:05:33.027Z,100
2018-08-28T07:06:32.738Z,105
2018-08-28T07:07:32.999Z,105
2018-08-28T07:08:32.988Z,105
2018-08-28T07:09:32.708Z,110
2018-08-28T07:10:32.697Z,110
2018-08-28T07:11:32.723Z,115
2018-08-28T07:12:32.937Z,115
2018-08-28T07:13:32.927Z,110
2018-08-28T07:14:32.902Z,110
2018-08-28T07:15:33.014Z,115
2018-08-28T07:16:32.820Z,115
2018-08-28T07:17:32.605Z,120
2018-08-28T07:18:32.915Z,125
2018-08-28T07:19:32.859Z,125
2018-08-28T07:20:33.118Z,125
2018-08-28T07:21:32.832Z,125
2018-08-28T07:22:32.856Z,125
2018-08-28T07:23:32.818Z,130
2018-08-28T07:24:32.802Z,130
2018-08-28T07:25:32.610Z,130
2018-08-28T07:26:32.792Z,130
2018-08-28T07:27:32.529Z,130
2018-08-28T07:28:33.021Z,135
2018-08-28T07:29:32.484Z,135
2018-08-28T07:30:32.476Z,140
2018-08-28T07:31:33.652Z,140
2018-08-28T07:32:32.470Z,145
2018-08-28T07:33:32.713Z,140
2018-08-28T07:34:32.703Z,145
2018-08-28T07:35:32.169Z,145
2018-08-28T07:36:32.401Z,150
2018-08-28T07:37:33.174Z,150
2018-08-28T07:38:32.127Z,150
2018-08-28T07:39:32.637Z,145
2018-08-28T07:40:32.108Z,145
2018-08-28T07:41:32.357Z,145
2018-08-28T07:42:32.636Z,145
2018-08-28T07:43:32.597Z,145
2018-08-28T07:44:32.338Z,145
2018-08-28T07:45:32.301Z,145
2018-08-28T07:46:32.291Z,140
2018-08-28T07:47:32.034Z,140
2018-08-28T07:48:33.263Z,140
2018-08-28T07:49:32.813Z,140
2018-08-28T07:50:32.511Z,145
2018-08-28T07:51:32.246Z,145
2018-08-28T07:52:32.786Z,145
2018-08-28T07:53:32.235Z,145
2018-08-28T07:54:32.219Z,150
2018-08-28T07:55:32.214Z,155
2018-08-28T07:56:32.462Z,155
2018-08-28T07:57:32.177Z,160
2018-08-28T07:58:31.906Z,160
2018-08-28T07:59:32.160Z,165
2018-08-28T08:00:32.161Z,165
2018-08-28T08:01:33.212Z,170
2018-08-28T08:02:32.397Z,170
2018-08-28T08:03:32.378Z,175
2018-08-28T08:04:32.646Z,175
2018-08-28T08:05:32.351Z,180
2018-08-28T08:06:32.375Z,190
2018-08-28T08:07:32.343Z,195
2018-08-28T08:08:31.799Z,200
2018-08-28T08:09:32.608Z,205
2018-08-28T08:10:31.930Z,210
2018-08-28T08:11:32.077Z,210
2018-08-28T08:12:32.296Z,215
2018-08-28T08:13:32.016Z,220
2018-08-28T08:14:32.288Z,215
2018-08-28T08:15:32.047Z,220
2018-08-28T08:16:32.259Z,220
2018-08-28T08:17:32.254Z,220
2018-08-28T08:18:31.971Z,220
2018-08-28T08:19:31.968Z,225
2018-08-28T08:20:32.215Z,225
2018-08-28T08:21:31.944Z,225
2018-08-28T08:22:32.264Z,220
2018-08-28T08:23:32.187Z,220
2018-08-28T08:24:31.640Z,225
2018-08-28T08:25:32.437Z,225
2018-08-28T08:26:32.160Z,230
2018-08-28T08:27:32.146Z,230
2018-08-28T08:28:32.207Z,230
2018-08-28T08:29:32.135Z,235
2018-08-28T08:30:32.128Z,240
2018-08-28T08:31:32.109Z,245
2018-08-28T08:32:31.836Z,255
2018-08-28T08:33:32.099Z,260
2018-08-28T08:34:31.825Z,265
2018-08-28T08:35:32.415Z,265
2018-08-28T08:36:31.539Z,265
2018-08-28T08:37:32.046Z,265
2018-08-28T08:38:31.541Z,275
2018-08-28T08:39:32.306Z,275
2018-08-28T08:40:31.768Z,270
2018-08-28T08:41:32.026Z,270
2018-08-28T08:42:31.750Z,275
2018-08-28T08:43:31.463Z,275
2018-08-28T08:44:31.461Z,280
2018-08-28T08:45:31.715Z,285
2018-08-28T08:46:31.436Z,290
2018-08-28T08:47:31.173Z,295
2018-08-28T08:48:31.966Z,295
2018-08-28T08:49:31.950Z,290
2018-08-28T08:50:31.413Z,290
2018-08-28T08:51:31.672Z,290
2018-08-28T08:52:31.926Z,290
2018-08-28T08:53:31.649Z,290
2018-08-28T08:54:31.640Z,295
2018-08-28T08:55:32.153Z,305
2018-08-28T08:56:31.628Z,310
2018-08-28T08:57:32.039Z,315
2018-08-28T08:58:31.340Z,320
2018-08-28T08:59:31.606Z,320
2018-08-28T09:00:31.599Z,315
2018-08-28T09:01:31.315Z,315
2018-08-28T09:02:31.243Z,310
2018-08-28T09:03:31.296Z,310
2018-08-28T09:04:31.564Z,315
2018-08-28T09:05:31.540Z,320
2018-08-28T09:06:31.805Z,320
2018-08-28T09:07:31.530Z,325
2018-08-28T09:08:31.784Z,330
2018-08-28T09:09:32.047Z,325
2018-08-28T09:10:31.509Z,325
2018-08-28T09:11:31.491Z,320
2018-08-28T09:12:31.761Z,325
2018-08-28T09:13:32.466Z,330
2018-08-28T09:14:31.735Z,330
2018-08-28T09:15:31.619Z,330
2018-08-28T09:16:31.456Z,330
2018-08-28T09:17:31.733Z,315
2018-08-28T09:18:31.430Z,310
2018-08-28T09:19:31.594Z,295
2018-08-28T09:20:31.427Z,280
2018-08-28T09:21:31.157Z,255
2018-08-28T09:22:31.409Z,235
2018-08-28T09:23:31.670Z,215
2018-08-28T09:24:31.660Z,200
2018-08-28T09:25:31.911Z,200
2018-08-28T09:26:31.118Z,210
2018-08-28T09:27:31.631Z,220
2018-08-28T09:28:31.881Z,235
2018-08-28T09:29:31.630Z,235
2018-08-28T09:30:31.620Z,240
2018-08-28T09:31:31.433Z,255
2018-08-28T09:32:30.803Z,270
2018-08-28T09:33:31.598Z,280
2018-08-28T09:34:31.588Z,275
2018-08-28T09:35:31.308Z,265
2018-08-28T09:36:31.299Z,255
2018-08-28T09:37:31.301Z,250
2018-08-28T09:38:31.729Z,250
2018-08-28T09:39:31.543Z,245
2018-08-28T09:40:31.543Z,250
2018-08-28T09:41:31.521Z,255
2018-08-28T09:42:31.802Z,260
2018-08-28T09:43:31.248Z,265
2018-08-28T09:44:31.248Z,265
2018-08-28T09:45:31.489Z,265
2018-08-28T09:46:31.493Z,260
2018-08-28T09:47:31.476Z,255
2018-08-28T09:48:32.400Z,265
2018-08-28T09:49:31.205Z,270
2018-08-28T09:50:31.569Z,275
2018-08-28T09:51:31.182Z,280
2018-08-28T09:52:31.705Z,275
2018-08-28T09:53:31.445Z,260
2018-08-28T09:54:31.161Z,245
2018-08-28T09:55:31.420Z,240
2018-08-28T09:56:31.892Z,240
2018-08-28T09:57:31.407Z,230
2018-08-28T09:58:31.421Z,225
2018-08-28T09:59:30.601Z,205
2018-08-28T10:00:31.135Z,185
2018-08-28T10:01:30.854Z,170
2018-08-28T10:02:31.645Z,160
2018-08-28T10:03:31.621Z,160
2018-08-28T10:04:31.094Z,155
2018-08-28T10:05:31.366Z,160
2018-08-28T10:06:31.605Z,170
2018-08-28T10:07:31.335Z,190
2018-08-28T10:08:31.055Z,210
2018-08-28T10:09:31.043Z,230
2018-08-28T10:10:31.321Z,245
2018-08-28T10:11:31.302Z,255
2018-08-28T10:12:31.294Z,260
2018-08-28T10:13:31.015Z,275
2018-08-28T10:14:31.018Z,280
2018-08-28T10:15:31.009Z,280
2018-08-28T10:16:30.739Z,265
2018-08-28T10:17:31.707Z,255
2018-08-28T10:18:31.250Z,250
2018-08-28T10:19:30.700Z,250
2018-08-28T10:20:30.700Z,260
2018-08-28T10:21:30.953Z,265
2018-08-28T10:22:30.689Z,270
2018-08-28T10:23:31.476Z,265
2018-08-28T10:24:31.478Z,250
2018-08-28T10:25:30.919Z,240
2018-08-28T10:26:30.919Z,240
2018-08-28T10:27:30.640Z,255
2018-08-28T10:28:30.895Z,250
2018-08-28T10:29:30.632Z,245
2018-08-28T10:30:31.682Z,235
2018-08-28T10:31:31.152Z,230
2018-08-28T10:32:31.149Z,225
2018-08-28T10:33:30.593Z,220
2018-08-28T10:34:30.851Z,210
2018-08-28T10:35:31.387Z,210
2018-08-28T10:36:30.846Z,210
2018-08-28T10:37:30.842Z,215
2018-08-28T10:38:30.591Z,220
2018-08-28T10:39:31.101Z,225
2018-08-28T10:40:31.068Z,225
2018-08-28T10:41:30.800Z,235
2018-08-28T10:42:30.799Z,245
2018-08-28T10:43:31.057Z,265
2018-08-28T10:44:31.041Z,285
2018-08-28T10:45:30.550Z,300
2018-08-28T10:46:31.696Z,320
2018-08-28T10:47:30.818Z,350
2018-08-28T10:48:30.746Z,370
2018-08-28T10:49:30.735Z,380
2018-08-28T10:50:31.042Z,415
2018-08-28T10:51:31.275Z,430
2018-08-28T10:52:30.722Z,445
2018-08-28T10:53:30.983Z,445
2018-08-28T10:54:30.438Z,440
2018-08-28T10:55:30.698Z,445
2018-08-28T10:56:30.692Z,705
2018-08-28T10:57:31.223Z,530
2018-08-28T10:58:30.686Z,620
2018-08-28T10:59:30.942Z,535
2018-08-28T11:00:30.673Z,530
2018-08-28T11:01:30.670Z,440
2018-08-28T11:02:30.856Z,425
2018-08-28T11:03:30.921Z,550
2018-08-28T11:04:31.118Z,745
2018-08-28T11:05:30.642Z,785
2018-08-28T11:06:30.894Z,695
2018-08-28T11:07:30.366Z,455
2018-08-28T11:08:30.631Z,415
2018-08-28T11:09:30.355Z,415
2018-08-28T11:10:30.625Z,645
2018-08-28T11:11:30.897Z,555
2018-08-28T11:12:30.345Z,515
2018-08-28T11:13:30.872Z,645
2018-08-28T11:14:30.593Z,960
2018-08-28T11:15:30.312Z,1220
2018-08-28T11:16:31.117Z,1245
2018-08-28T11:17:30.863Z,1425
2018-08-28T11:18:30.297Z,1445
2018-08-28T11:19:30.590Z,1475
2018-08-28T11:20:30.840Z,1445
2018-08-28T11:21:30.863Z,1305
2018-08-28T11:22:31.384Z,1180
2018-08-28T11:23:30.305Z,1140
2018-08-28T11:24:30.586Z,1160
2018-08-28T11:25:30.828Z,1040
2018-08-28T11:26:30.979Z,1095
2018-08-28T11:27:30.713Z,1235
2018-08-28T11:28:30.695Z,1130
2018-08-28T11:29:30.562Z,1065
2018-08-28T11:30:30.573Z,1005
2018-08-28T11:31:30.904Z,1155
2018-08-28T11:32:30.826Z,1410
2018-08-28T11:33:30.549Z,1390
2018-08-28T11:34:30.013Z,1435
2018-08-28T11:35:30.880Z,1420
2018-08-28T11:36:30.816Z,1435
2018-08-28T11:37:30.559Z,1485
2018-08-28T11:38:31.376Z,1540
2018-08-28T11:39:30.842Z,1505
2018-08-28T11:40:30.873Z,1455
2018-08-28T11:41:30.837Z,1550
2018-08-28T11:42:30.562Z,1595
2018-08-28T11:43:30.840Z,1665
2018-08-28T11:44:30.829Z,1680
2018-08-28T11:45:30.573Z,1680
2018-08-28T11:46:30.837Z,1710
2018-08-28T11:47:30.857Z,1740
2018-08-28T11:48:30.850Z,1730
2018-08-28T11:49:30.863Z,1695
2018-08-28T11:50:30.882Z,1645
2018-08-28T11:51:31.139Z,1540
2018-08-28T11:52:31.178Z,1435
2018-08-28T11:53:30.873Z,1425
2018-08-28T11:54:30.350Z,1460
2018-08-28T11:55:30.625Z,1465
2018-08-28T11:56:30.624Z,1510
2018-08-28T11:57:30.368Z,1515
2018-08-28T11:58:30.897Z,1470
2018-08-28T11:59:30.377Z,1530
2018-08-28T12:00:30.959Z,1710
2018-08-28T12:01:31.192Z,1420
2018-08-28T12:02:30.942Z,1110
2018-08-28T12:03:30.928Z,910
2018-08-28T12:04:31.189Z,405
2018-08-28T12:05:30.592Z,335
2018-08-28T12:06:30.417Z,305
2018-08-28T12:07:31.058Z,285
2018-08-28T12:08:31.219Z,270
2018-08-28T12:09:31.293Z,255
2018-08-28T12:10:30.703Z,260
2018-08-28T12:11:30.972Z,260
2018-08-28T12:12:30.708Z,255
2018-08-28T12:13:30.437Z,250
2018-08-28T12:14:30.972Z,250
2018-08-28T12:15:31.243Z,250
2018-08-28T12:16:30.713Z,260
2018-08-28T12:17:31.256Z,280
2018-08-28T12:18:30.996Z,290
2018-08-28T12:19:31.014Z,300
2018-08-28T12:20:31.273Z,355
2018-08-28T12:21:30.738Z,520
2018-08-28T12:22:30.785Z,525
2018-08-28T12:23:30.450Z,645
2018-08-28T12:24:30.711Z,1605
2018-08-28T12:25:30.996Z,630
2018-08-28T12:26:31.010Z,530
2018-08-28T12:27:30.988Z,820
2018-08-28T12:28:31.260Z,365
2018-08-28T12:29:31.227Z,305
2018-08-28T12:30:30.718Z,305
2018-08-28T12:31:31.243Z,310
2018-08-28T12:32:30.985Z,330
2018-08-28T12:33:31.003Z,355
2018-08-28T12:34:30.707Z,350
2018-08-28T12:35:31.001Z,355
2018-08-28T12:36:31.003Z,415
2018-08-28T12:37:31.082Z,475
2018-08-28T12:38:31.235Z,855
2018-08-28T12:39:30.997Z,1530
2018-08-28T12:40:30.720Z,770
2018-08-28T12:41:30.442Z,1175
2018-08-28T12:42:30.972Z,1220
2018-08-28T12:43:30.721Z,520
2018-08-28T12:44:30.438Z,1235
2018-08-28T12:45:30.710Z,555
2018-08-28T12:46:31.244Z,380
2018-08-28T12:47:30.974Z,340
2018-08-28T12:48:30.969Z,345
2018-08-28T12:49:30.426Z,390
2018-08-28T12:50:30.437Z,1190
2018-08-28T12:51:31.409Z,485
2018-08-28T12:52:30.424Z,380
2018-08-28T12:53:30.959Z,360
2018-08-28T12:54:30.701Z,355
2018-08-28T12:55:30.721Z,350
2018-08-28T12:56:30.716Z,345
2018-08-28T12:57:31.239Z,360
2018-08-28T12:58:31.221Z,430
2018-08-28T12:59:31.266Z,1075
2018-08-28T13:00:31.330Z,1355
2018-08-28T13:01:30.679Z,345
2018-08-28T13:02:32.417Z,410
2018-08-28T13:03:30.938Z,310
2018-08-28T13:04:30.659Z,345
2018-08-28T13:05:31.403Z,330
2018-08-28T13:06:30.956Z,265
2018-08-28T13:07:31.530Z,250
2018-08-28T13:08:30.920Z,265
2018-08-28T13:09:30.925Z,280
2018-08-28T13:10:31.236Z,285
2018-08-28T13:11:30.412Z,305
2018-08-28T13:12:31.203Z,315
2018-08-28T13:13:30.940Z,310
2018-08-28T13:14:30.703Z,310
2018-08-28T13:15:30.925Z,305
2018-08-28T13:16:30.903Z,305
2018-08-28T13:17:31.172Z,320
2018-08-28T13:18:31.174Z,350
2018-08-28T13:19:30.914Z,365
2018-08-28T13:20:30.369Z,355
2018-08-28T13:21:31.156Z,345
2018-08-28T13:22:30.365Z,345
2018-08-28T13:23:30.646Z,345
2018-08-28T13:24:30.355Z,345
2018-08-28T13:25:31.044Z,370
2018-08-28T13:26:30.618Z,395
2018-08-28T13:27:31.136Z,415
2018-08-28T13:28:30.870Z,395
2018-08-28T13:29:30.610Z,750
2018-08-28T13:30:30.601Z,1225
2018-08-28T13:31:30.339Z,1250
2018-08-28T13:32:30.886Z,705
2018-08-28T13:33:30.071Z,630
2018-08-28T13:34:30.857Z,395
2018-08-28T13:35:30.603Z,450
2018-08-28T13:36:30.849Z,830
2018-08-28T13:37:30.320Z,1200
2018-08-28T13:38:30.864Z,735
2018-08-28T13:39:30.321Z,465
2018-08-28T13:40:31.353Z,420
2018-08-28T13:41:30.578Z,420
2018-08-28T13:42:30.843Z,1235
2018-08-28T13:43:30.331Z,1225
2018-08-28T13:44:30.857Z,1245
2018-08-28T13:45:30.874Z,1260
2018-08-28T13:46:30.861Z,775
2018-08-28T13:47:30.577Z,1120
2018-08-28T13:48:31.120Z,395
2018-08-28T13:49:30.842Z,420
2018-08-28T13:50:30.846Z,440
2018-08-28T13:51:30.585Z,1230
2018-08-28T13:52:30.862Z,1290
2018-08-28T13:53:30.652Z,1265
2018-08-28T13:54:32.212Z,1155
2018-08-28T13:55:30.856Z,1115
2018-08-28T13:56:30.818Z,1200
2018-08-28T13:57:30.860Z,1200
2018-08-28T13:58:30.600Z,1195
2018-08-28T13:59:31.118Z,1195
2018-08-28T14:00:30.586Z,1200
2018-08-28T14:01:30.861Z,1195
2018-08-28T14:02:30.911Z,1140
2018-08-28T14:03:30.860Z,975
2018-08-28T14:04:31.146Z,1125
2018-08-28T14:05:30.351Z,1085
2018-08-28T14:06:30.922Z,1125
2018-08-28T14:07:30.908Z,1145
2018-08-28T14:08:30.895Z,1100